Time;durP1;ratioP1;P1;durP2;ratioP2;P2;SDS_P1;SDS_P2;PMS_P1;PMS_P2;Temp;Humidity;BMP_temperature;BMP_pressure;BME280_temperature;BME280_humidity;BME280_pressure;Samples;Min_cycle;Max_cycle;Signal;HPM_P1;HPM_P2
2023/01/22 00:01:21;;;;;;;69.18;35.75;;;;;;;;;;4452370;32;20109;-74
2023/01/22 00:03:47;;;;;;;74.43;35.35;;;;;;;;;;4451606;32;20024;-74
2023/01/22 00:06:13;;;;;;;73.35;34.95;;;;;;;;;;4452365;32;20041;-74
2023/01/22 00:08:38;;;;;;;65.43;32.72;;;;;;;;;;4453360;32;20055;-74
2023/01/22 00:11:03;;;;;;;77.03;34.97;;;;;;;;;;4451698;32;20021;-74
2023/01/22 00:13:29;;;;;;;67.30;35.58;;;;;;;;;;4451318;32;20051;-76
2023/01/22 00:15:57;;;;;;;64.87;31.67;;;;;;;;;;4453198;32;20029;-74
2023/01/22 00:18:23;;;;;;;58.75;30.90;;;;;;;;;;4451274;32;20080;-74
2023/01/22 00:20:49;;;;;;;73.87;37.80;;;;;;;;;;4453188;32;20334;-74
2023/01/22 00:23:14;;;;;;;73.15;36.60;;;;;;;;;;4451702;32;20029;-74
2023/01/22 00:25:39;;;;;;;72.07;35.40;;;;;;;;;;4452770;32;20074;-75
2023/01/22 00:28:04;;;;;;;;;;;;;;;;;;4453808;32;20021;-75
2023/01/22 00:30:30;;;;;;;65.85;32.70;;;;;;;;;;4454015;32;19948;-75
2023/01/22 00:32:55;;;;;;;70.15;35.03;;;;;;;;;;4462704;32;20157;-75
2023/01/22 00:35:20;;;;;;;;;;;;;;;;;;4455328;32;20106;-75
2023/01/22 00:37:46;;;;;;;65.70;32.45;;;;;;;;;;4456628;32;19932;-74
2023/01/22 00:40:11;;;;;;;58.55;33.83;;;;;;;;;;4438009;32;20139;-74
2023/01/22 00:42:38;;;;;;;;;;;;;;;;;;4452037;32;20041;-74
2023/01/22 00:45:03;;;;;;;58.25;29.83;;;;;;;;;;4438534;32;19967;-75
2023/01/22 00:47:29;;;;;;;;;;;;;;;;;;4455017;32;20370;-75
2023/01/22 00:49:54;;;;;;;54.88;28.73;;;;;;;;;;4440030;32;19981;-75
2023/01/22 00:52:19;;;;;;;;;;;;;;;;;;4434938;32;20033;-74
2023/01/22 00:54:44;;;;;;;53.97;27.95;;;;;;;;;;4440384;32;19932;-75
2023/01/22 00:57:09;;;;;;;;;;;;;;;;;;4438573;32;20192;-75
2023/01/22 00:59:34;;;;;;;57.22;28.45;;;;;;;;;;4437346;32;19940;-74
2023/01/22 01:01:59;;;;;;;;;;;;;;;;;;4439978;32;20412;-75
2023/01/22 01:04:25;;;;;;;54.83;28.27;;;;;;;;;;4439525;32;19933;-76
2023/01/22 01:06:50;;;;;;;;;;;;;;;;;;4437727;32;20151;-75
2023/01/22 01:09:15;;;;;;;52.60;27.60;;;;;;;;;;4438524;32;19933;-76
2023/01/22 01:11:41;;;;;;;53.03;27.87;;;;;;;;;;4440406;32;20025;-75
2023/01/22 01:14:06;;;;;;;;;;;;;;;;;;4438711;32;20025;-76
2023/01/22 01:16:31;;;;;;;49.00;26.95;;;;;;;;;;4438894;32;19949;-75
2023/01/22 01:18:56;;;;;;;;;;;;;;;;;;4439297;32;20177;-76
2023/01/22 01:21:21;;;;;;;45.35;27.08;;;;;;;;;;4444146;32;19997;-75
2023/01/22 01:23:47;;;;;;;;;;;;;;;;;;4455791;32;20132;-76
2023/01/22 01:26:13;;;;;;;47.74;26.42;;;;;;;;;;4456018;32;20314;-75
2023/01/22 01:28:39;;;;;;;45.90;26.80;;;;;;;;;;4457007;32;20030;-75
2023/01/22 01:31:04;;;;;;;;;;;;;;;;;;4441191;32;20307;-76
2023/01/22 01:33:29;;;;;;;37.70;24.62;;;;;;;;;;4455961;32;19963;-76
2023/01/22 01:35:59;;;;;;;47.17;27.15;;;;;;;;;;4439761;32;20022;-75
2023/01/22 01:38:24;;;;;;;38.22;23.38;;;;;;;;;;4439442;32;20064;-76
2023/01/22 01:40:49;;;;;;;;;;;;;;;;;;4453766;32;20447;-76
2023/01/22 01:43:15;;;;;;;39.53;25.05;;;;;;;;;;4453813;32;19941;-76
2023/01/22 01:45:41;;;;;;;42.55;24.77;;;;;;;;;;4453458;32;20465;-73
2023/01/22 01:48:06;;;;;;;;;;;;;;;;;;4453965;32;20022;-75
2023/01/22 01:50:32;;;;;;;35.70;22.17;;;;;;;;;;4453129;32;20513;-74
2023/01/22 01:52:58;;;;;;;34.35;22.35;;;;;;;;;;4438357;32;20414;-75
2023/01/22 01:55:23;;;;;;;;;;;;;;;;;;4454885;32;20025;-75
2023/01/22 01:57:49;;;;;;;38.47;22.07;;;;;;;;;;4438496;32;20013;-75
2023/01/22 02:00:14;;;;;;;;;;;;;;;;;;4458708;32;20024;-74
2023/01/22 02:02:40;;;;;;;35.67;21.27;;;;;;;;;;4458184;32;19951;-74
2023/01/22 02:05:07;;;;;;;37.20;22.23;;;;;;;;;;4470224;32;20005;-74
2023/01/22 02:07:32;;;;;;;36.88;21.23;;;;;;;;;;4456940;32;20047;-74
2023/01/22 02:09:57;;;;;;;;;;;;;;;;;;4456011;32;20043;-73
2023/01/22 02:12:22;;;;;;;33.78;21.26;;;;;;;;;;4454324;32;20266;-74
2023/01/22 02:14:47;;;;;;;;;;;;;;;;;;4454046;32;20021;-75
2023/01/22 02:17:15;;;;;;;29.98;17.52;;;;;;;;;;4440036;32;20350;-75
2023/01/22 02:19:40;;;;;;;32.08;19.75;;;;;;;;;;4452962;32;20506;-75
2023/01/22 02:22:05;;;;;;;;;;;;;;;;;;4454424;32;20056;-73
2023/01/22 02:24:31;;;;;;;30.10;18.10;;;;;;;;;;4452848;32;19970;-75
2023/01/22 02:26:56;;;;;;;;;;;;;;;;;;4453343;32;20510;-74
2023/01/22 02:29:21;;;;;;;29.85;18.25;;;;;;;;;;4453430;32;19936;-74
2023/01/22 02:31:46;;;;;;;;;;;;;;;;;;4453059;32;20191;-74
2023/01/22 02:34:12;;;;;;;23.48;16.02;;;;;;;;;;4439307;32;19936;-74
2023/01/22 02:36:37;;;;;;;;;;;;;;;;;;4438946;32;20293;-75
2023/01/22 02:39:02;;;;;;;28.33;16.67;;;;;;;;;;4454345;32;19933;-75
2023/01/22 02:41:27;;;;;;;;;;;;;;;;;;4453803;32;20468;-75
2023/01/22 02:43:52;;;;;;;23.94;16.68;;;;;;;;;;4452650;32;20290;-75
2023/01/22 02:46:17;;;;;;;;;;;;;;;;;;4453634;32;20017;-75
2023/01/22 02:48:42;;;;;;;25.40;15.63;;;;;;;;;;4452202;32;19972;-75
2023/01/22 02:51:08;;;;;;;;;;;;;;;;;;4451789;32;20155;-75
2023/01/22 02:53:34;;;;;;;23.52;14.23;;;;;;;;;;4452847;32;20007;-74
2023/01/22 02:55:59;;;;;;;27.70;15.20;;;;;;;;;;4437834;32;20124;-75
2023/01/22 02:58:24;;;;;;;;;;;;;;;;;;4452342;32;20406;-75
2023/01/22 03:00:50;;;;;;;22.33;14.77;;;;;;;;;;4437775;32;19941;-75
2023/01/22 03:03:15;;;;;;;;;;;;;;;;;;4454099;32;20131;-75
2023/01/22 03:05:46;;;;;;;23.05;14.52;;;;;;;;;;4452780;32;19985;-75
2023/01/22 03:08:12;;;;;;;21.17;14.23;;;;;;;;;;4452105;32;20025;-75
2023/01/22 03:10:37;;;;;;;;;;;;;;;;;;4453565;32;20067;-74
2023/01/22 03:21:15;;;;;;;20.80;14.77;;;;;;;;;;4452976;32;20055;-76
2023/01/22 03:23:40;;;;;;;;;;;;;;;;;;4438127;32;20040;-76
2023/01/22 03:26:06;;;;;;;22.27;14.38;;;;;;;;;;4452025;32;19932;-75
2023/01/22 03:28:31;;;;;;;;;;;;;;;;;;4439892;32;20402;-76
2023/01/22 03:30:56;;;;;;;22.70;15.02;;;;;;;;;;4454796;32;20366;-75
2023/01/22 03:33:22;;;;;;;20.20;14.23;;;;;;;;;;4459696;32;20049;-76
2023/01/22 03:35:47;;;;;;;;;;;;;;;;;;4457226;32;20018;-76
2023/01/22 03:38:12;;;;;;;21.23;13.50;;;;;;;;;;4468293;32;19975;-76
2023/01/22 03:40:37;;;;;;;23.85;13.55;;;;;;;;;;4445929;32;20461;-75
2023/01/22 03:43:02;;;;;;;22.10;14.85;;;;;;;;;;4440650;32;20029;-75
2023/01/22 03:45:27;;;;;;;22.08;13.80;;;;;;;;;;4452871;32;20403;-75
2023/01/22 03:47:53;;;;;;;21.73;14.45;;;;;;;;;;4453749;32;20025;-74
2023/01/22 03:50:18;;;;;;;22.05;13.95;;;;;;;;;;4437791;32;20056;-75
2023/01/22 03:52:43;;;;;;;;;;;;;;;;;;4453422;32;20017;-75
2023/01/22 03:55:08;;;;;;;21.62;14.45;;;;;;;;;;4437658;32;19940;-75
2023/01/22 03:57:34;;;;;;;;;;;;;;;;;;4452637;32;20140;-74
2023/01/22 04:00:00;;;;;;;21.92;14.38;;;;;;;;;;4451673;32;19983;-74
2023/01/22 04:02:26;;;;;;;22.45;14.18;;;;;;;;;;4452748;32;20113;-75
2023/01/22 04:04:51;;;;;;;;;;;;;;;;;;4454154;32;20379;-75
2023/01/22 04:07:16;;;;;;;23.14;16.50;;;;;;;;;;4454603;32;19932;-74
2023/01/22 04:09:41;;;;;;;;;;;;;;;;;;4453986;32;20119;-74
2023/01/22 04:12:07;;;;;;;21.50;14.43;;;;;;;;;;4452983;32;19989;-75
2023/01/22 04:14:32;;;;;;;;;;;;;;;;;;4453675;32;20548;-75
2023/01/22 04:16:57;;;;;;;23.70;14.90;;;;;;;;;;4451984;32;19946;-76
2023/01/22 04:19:22;;;;;;;;;;;;;;;;;;4451681;32;20464;-75
2023/01/22 04:21:47;;;;;;;20.55;13.30;;;;;;;;;;4452342;32;20299;-75
2023/01/22 04:24:13;;;;;;;;;;;;;;;;;;4437676;32;20127;-75
2023/01/22 04:26:38;;;;;;;19.45;12.88;;;;;;;;;;4453616;32;19936;-75
2023/01/22 04:29:03;;;;;;;;;;;;;;;;;;4455863;32;20486;-74
2023/01/22 04:31:28;;;;;;;19.75;13.48;;;;;;;;;;4455110;32;19936;-75
2023/01/22 04:33:53;;;;;;;;;;;;;;;;;;4456094;32;20116;-74
2023/01/22 04:36:18;;;;;;;19.16;13.74;;;;;;;;;;4442231;32;19950;-74
2023/01/22 04:38:43;;;;;;;;;;;;;;;;;;4437044;32;20086;-75
2023/01/22 04:41:09;;;;;;;20.88;12.35;;;;;;;;;;4451627;32;19940;-75
2023/01/22 04:43:34;;;;;;;20.95;14.20;;;;;;;;;;4451849;32;20409;-76
2023/01/22 04:45:59;;;;;;;20.60;14.20;;;;;;;;;;4453114;32;20108;-75
2023/01/22 04:48:24;;;;;;;;;;;;;;;;;;4437170;32;20043;-75
2023/01/22 04:50:49;;;;;;;21.80;14.82;;;;;;;;;;4451536;32;19948;-74
2023/01/22 04:53:15;;;;;;;;;;;;;;;;;;4451865;32;20113;-74
2023/01/22 04:55:41;;;;;;;19.70;12.63;;;;;;;;;;4437501;32;19936;-74
2023/01/22 04:58:06;;;;;;;21.95;13.50;;;;;;;;;;4453283;32;20096;-75
2023/01/22 05:00:31;;;;;;;;;;;;;;;;;;4453585;32;20358;-74
2023/01/22 05:02:57;;;;;;;19.56;12.38;;;;;;;;;;4458728;32;19937;-75
2023/01/22 05:05:22;;;;;;;;;;;;;;;;;;4467130;32;20056;-75
2023/01/22 05:07:47;;;;;;;22.06;13.48;;;;;;;;;;4458148;32;19947;-75
2023/01/22 05:10:12;;;;;;;;;;;;;;;;;;4452436;32;20119;-74
2023/01/22 05:12:38;;;;;;;21.80;12.85;;;;;;;;;;4451388;32;20295;-75
2023/01/22 05:15:03;;;;;;;;;;;;;;;;;;4452640;32;20055;-74
2023/01/22 05:17:28;;;;;;;19.58;12.46;;;;;;;;;;4452712;32;19952;-75
2023/01/22 05:19:53;;;;;;;;;;;;;;;;;;4438796;32;20029;-75
2023/01/22 05:22:18;;;;;;;22.80;12.73;;;;;;;;;;4436847;32;19978;-75
2023/01/22 05:24:44;;;;;;;;;;;;;;;;;;4453195;32;20120;-75
2023/01/22 05:27:09;;;;;;;21.45;12.77;;;;;;;;;;4438332;32;19936;-74
2023/01/22 05:29:34;;;;;;;;;;;;;;;;;;4453032;32;20048;-75
2023/01/22 05:31:59;;;;;;;15.23;10.45;;;;;;;;;;4438585;32;19955;-75
2023/01/22 05:34:24;;;;;;;;;;;;;;;;;;4438276;32;20199;-75
2023/01/22 05:36:51;;;;;;;19.45;11.40;;;;;;;;;;4455011;32;19964;-75
2023/01/22 05:39:16;;;;;;;21.95;11.70;;;;;;;;;;4439873;32;20452;-75
2023/01/22 05:41:41;;;;;;;;;;;;;;;;;;4439258;32;20025;-75
2023/01/22 05:44:09;;;;;;;22.52;11.73;;;;;;;;;;4453486;32;19944;-76
2023/01/22 05:46:34;;;;;;;17.55;11.55;;;;;;;;;;4454298;32;20449;-76
2023/01/22 05:48:59;;;;;;;;;;;;;;;;;;4455338;32;20029;-76
2023/01/22 05:51:25;;;;;;;20.55;11.10;;;;;;;;;;4439104;32;19937;-76
2023/01/22 05:53:51;;;;;;;20.08;10.82;;;;;;;;;;4453897;32;20067;-76
2023/01/22 05:56:16;;;;;;;;;;;;;;;;;;4439189;32;20423;-76
2023/01/22 05:58:41;;;;;;;22.23;11.80;;;;;;;;;;4437862;32;20356;-76
2023/01/22 06:01:06;;;;;;;;;;;;;;;;;;4453286;32;20399;-76
2023/01/22 06:03:31;;;;;;;23.48;12.73;;;;;;;;;;4453208;32;19952;-76
2023/01/22 06:05:56;;;;;;;;;;;;;;;;;;4453278;32;20120;-75
2023/01/22 06:08:22;;;;;;;20.58;11.32;;;;;;;;;;4438972;32;20294;-75
2023/01/22 06:10:47;;;;;;;22.65;12.13;;;;;;;;;;4453369;32;20021;-75
2023/01/22 06:13:12;;;;;;;22.90;11.73;;;;;;;;;;4439008;32;20057;-75
2023/01/22 06:15:37;;;;;;;;;;;;;;;;;;4453937;32;20022;-75
2023/01/22 06:18:03;;;;;;;23.10;11.65;;;;;;;;;;4453084;32;19932;-76
2023/01/22 06:20:28;;;;;;;19.50;11.23;;;;;;;;;;4439055;32;20123;-75
2023/01/22 06:22:54;;;;;;;;;;;;;;;;;;4453448;32;20051;-75
2023/01/22 06:25:19;;;;;;;24.92;11.65;;;;;;;;;;4452651;32;19937;-75
2023/01/22 06:27:44;;;;;;;19.33;12.40;;;;;;;;;;4454580;32;20044;-76
2023/01/22 06:30:10;;;;;;;22.60;12.20;;;;;;;;;;4440329;32;20013;-74
2023/01/22 06:32:35;;;;;;;18.92;11.70;;;;;;;;;;4467879;32;20058;-75
2023/01/22 06:35:00;;;;;;;;;;;;;;;;;;4469777;32;20029;-75
2023/01/22 06:37:25;;;;;;;16.87;11.82;;;;;;;;;;4454724;32;19969;-75
2023/01/22 06:39:50;;;;;;;;;;;;;;;;;;4454273;32;20140;-75
2023/01/22 06:42:15;;;;;;;29.42;12.82;;;;;;;;;;4453628;32;20328;-75
2023/01/22 06:44:41;;;;;;;;;;;;;;;;;;4439329;32;20146;-73
2023/01/22 06:47:06;;;;;;;22.40;11.02;;;;;;;;;;4451902;32;19984;-74
2023/01/22 06:49:31;;;;;;;;;;;;;;;;;;4437397;32;20121;-74
2023/01/22 06:51:56;;;;;;;21.80;11.75;;;;;;;;;;4437842;32;19973;-74
2023/01/22 06:54:21;;;;;;;;;;;;;;;;;;4453702;32;20115;-75
2023/01/22 06:56:46;;;;;;;20.65;11.73;;;;;;;;;;4452524;32;19944;-75
2023/01/22 06:59:12;;;;;;;19.05;10.80;;;;;;;;;;4438181;32;20488;-76
2023/01/22 07:01:37;;;;;;;;;;;;;;;;;;4453826;32;20309;-75
2023/01/22 07:04:02;;;;;;;18.56;10.70;;;;;;;;;;4453703;32;19964;-75
2023/01/22 07:06:27;;;;;;;;;;;;;;;;;;4454326;32;20025;-76
2023/01/22 07:08:52;;;;;;;19.17;11.65;;;;;;;;;;4452224;32;19960;-75
2023/01/22 07:11:18;;;;;;;;;;;;;;;;;;4454058;32;20199;-74
2023/01/22 07:13:43;;;;;;;21.23;11.50;;;;;;;;;;4451770;32;19972;-74
2023/01/22 07:16:08;;;;;;;;;;;;;;;;;;4453488;32;20146;-74
2023/01/22 07:18:33;;;;;;;23.02;9.70;;;;;;;;;;4451771;32;19951;-74
2023/01/22 07:20:58;;;;;;;;;;;;;;;;;;4452943;32;20094;-75
2023/01/22 07:23:23;;;;;;;21.65;11.02;;;;;;;;;;4454037;32;20062;-75
2023/01/22 07:25:49;;;;;;;15.70;9.68;;;;;;;;;;4451767;32;20048;-74
2023/01/22 07:28:14;;;;;;;18.80;9.52;;;;;;;;;;4452308;32;20456;-75
2023/01/22 07:30:40;;;;;;;19.62;10.75;;;;;;;;;;4437969;32;20025;-74
2023/01/22 07:33:06;;;;;;;17.35;9.25;;;;;;;;;;4453738;32;20074;-74
2023/01/22 07:35:31;;;;;;;;;;;;;;;;;;4454277;32;20033;-75
2023/01/22 07:37:57;;;;;;;19.20;9.98;;;;;;;;;;4455399;32;19932;-75
2023/01/22 07:40:23;;;;;;;15.50;9.27;;;;;;;;;;4457081;32;20443;-73
2023/01/22 07:42:49;;;;;;;;;;;;;;;;;;4453936;32;20021;-74
2023/01/22 07:45:14;;;;;;;14.68;9.00;;;;;;;;;;4453283;32;20312;-75
2023/01/22 07:47:39;;;;;;;;;;;;;;;;;;4452596;32;20155;-76
2023/01/22 07:50:05;;;;;;;18.42;8.86;;;;;;;;;;4451584;32;19936;-75
2023/01/22 07:52:30;;;;;;;;;;;;;;;;;;4452008;32;20066;-75
2023/01/22 07:54:55;;;;;;;13.20;8.85;;;;;;;;;;4436663;32;19941;-76
2023/01/22 07:57:20;;;;;;;;;;;;;;;;;;4452040;32;20163;-75
2023/01/22 07:59:45;;;;;;;13.25;8.48;;;;;;;;;;4457818;32;19964;-75
2023/01/22 08:02:11;;;;;;;13.95;9.00;;;;;;;;;;4456361;32;20044;-75
2023/01/22 08:04:37;;;;;;;14.02;8.65;;;;;;;;;;4460128;32;20049;-75
2023/01/22 08:07:02;;;;;;;;;;;;;;;;;;4453074;32;20101;-75
2023/01/22 08:09:27;;;;;;;11.82;8.13;;;;;;;;;;4437750;32;19948;-76
2023/01/22 08:11:52;;;;;;;;;;;;;;;;;;4438180;32;20163;-75
2023/01/22 08:14:17;;;;;;;13.68;8.55;;;;;;;;;;4439032;32;20277;-75
2023/01/22 08:16:43;;;;;;;;;;;;;;;;;;4451214;32;20071;-76
2023/01/22 08:19:08;;;;;;;11.90;7.72;;;;;;;;;;4452821;32;19936;-75
2023/01/22 08:21:33;;;;;;;;;;;;;;;;;;4451459;32;20481;-75
2023/01/22 08:23:58;;;;;;;13.35;8.60;;;;;;;;;;4452529;32;19932;-74
2023/01/22 08:26:23;;;;;;;;;;;;;;;;;;4451697;32;20252;-75
2023/01/22 08:28:49;;;;;;;17.87;7.97;;;;;;;;;;4451674;32;19965;-75
2023/01/22 08:31:14;;;;;;;;;;;;;;;;;;4438533;32;20164;-76
2023/01/22 08:33:39;;;;;;;13.48;8.60;;;;;;;;;;4451734;32;19936;-74
2023/01/22 08:36:05;;;;;;;14.25;8.25;;;;;;;;;;4439156;32;20380;-75
2023/01/22 08:38:30;;;;;;;;;;;;;;;;;;4438598;32;20018;-74
2023/01/22 08:40:55;;;;;;;12.98;8.20;;;;;;;;;;4454004;32;19936;-76
2023/01/22 08:43:20;;;;;;;;;;;;;;;;;;4453482;32;20077;-76
2023/01/22 08:45:49;;;;;;;13.22;8.64;;;;;;;;;;4437553;32;19940;-75
2023/01/22 08:48:14;;;;;;;15.52;7.97;;;;;;;;;;4449812;32;20041;-76
2023/01/22 08:50:39;;;;;;;;;;;;;;;;;;4437218;32;20088;-75
2023/01/22 08:53:05;;;;;;;13.24;8.30;;;;;;;;;;4437714;32;19951;-75
2023/01/22 08:55:30;;;;;;;;;;;;;;;;;;4436655;32;20445;-73
2023/01/22 08:57:55;;;;;;;13.48;9.27;;;;;;;;;;4437347;32;19932;-74
2023/01/22 09:00:21;;;;;;;;;;;;;;;;;;4437788;32;20113;-76
2023/01/22 09:02:46;;;;;;;18.85;10.35;;;;;;;;;;4435545;32;20337;-75
2023/01/22 09:05:11;;;;;;;;;;;;;;;;;;4436514;32;20195;-75
2023/01/22 09:07:36;;;;;;;13.35;9.18;;;;;;;;;;4444191;32;19945;-75
2023/01/22 09:10:02;;;;;;;;;;;;;;;;;;4455713;32;20117;-75
2023/01/22 09:12:27;;;;;;;18.98;9.75;;;;;;;;;;4453963;32;19996;-74
2023/01/22 09:14:53;;;;;;;;;;;;;;;;;;4444981;32;20029;-74
2023/01/22 09:17:18;;;;;;;13.68;8.80;;;;;;;;;;4443703;32;19937;-75
2023/01/22 09:19:43;;;;;;;;;;;;;;;;;;4438791;32;20556;-74
2023/01/22 09:22:08;;;;;;;13.48;8.40;;;;;;;;;;4439450;32;20322;-74
2023/01/22 09:24:33;;;;;;;;;;;;;;;;;;4438251;32;20147;-74
2023/01/22 09:26:58;;;;;;;12.98;9.13;;;;;;;;;;4457409;32;19937;-75
2023/01/22 09:29:23;;;;;;;;;;;;;;;;;;4468332;32;20100;-74
2023/01/22 09:31:49;;;;;;;14.13;8.48;;;;;;;;;;4468766;32;19933;-73
2023/01/22 09:34:14;;;;;;;;;;;;;;;;;;4444729;32;20139;-73
2023/01/22 09:36:41;;;;;;;11.55;8.50;;;;;;;;;;4441145;32;19979;-73
2023/01/22 09:39:07;;;;;;;14.20;8.25;;;;;;;;;;4438749;32;20121;-73
2023/01/22 09:41:33;;;;;;;;;;;;;;;;;;4438323;32;20049;-76
2023/01/22 09:43:58;;;;;;;15.57;9.57;;;;;;;;;;4455625;32;19941;-79
2023/01/22 09:46:23;;;;;;;;;;;;;;;;;;4440952;32;20048;-76
2023/01/22 09:48:52;;;;;;;17.17;10.13;;;;;;;;;;4440732;32;20344;-80
2023/01/22 09:51:18;;;;;;;10.88;8.20;;;;;;;;;;4455662;32;20154;-80
2023/01/22 09:53:43;;;;;;;;;;;;;;;;;;4455325;32;20081;-82
2023/01/22 09:56:22;;;;;;;12.25;9.15;;;;;;;;;;4439530;32;20317;-76
2023/01/22 09:58:48;;;;;;;11.82;8.93;;;;;;;;;;4453321;32;20158;-77
2023/01/22 10:01:14;;;;;;;12.88;8.88;;;;;;;;;;4452624;32;20033;-75
2023/01/22 10:03:39;;;;;;;;;;;;;;;;;;4452938;32;20017;-75
2023/01/22 10:06:11;;;;;;;11.43;7.72;;;;;;;;;;4453173;32;20286;-76
2023/01/22 10:08:38;;;;;;;12.00;8.85;;;;;;;;;;4453851;32;20124;-77
2023/01/22 10:11:06;;;;;;;10.82;8.13;;;;;;;;;;4452820;32;20046;-75
2023/01/22 10:13:33;;;;;;;11.88;7.72;;;;;;;;;;4452208;32;20021;-76
2023/01/22 10:15:58;;;;;;;12.05;8.10;;;;;;;;;;4451668;32;20425;-76
2023/01/22 10:18:23;;;;;;;;;;;;;;;;;;4444092;32;20047;-76
2023/01/22 10:20:48;;;;;;;12.56;8.10;;;;;;;;;;4429139;32;20374;-76
2023/01/22 10:23:13;;;;;;;;;;;;;;;;;;4452341;32;20456;-77
2023/01/22 10:25:44;;;;;;;17.60;10.13;;;;;;;;;;4438148;32;19937;-76
2023/01/22 10:28:10;;;;;;;13.88;7.95;;;;;;;;;;4454354;32;20134;-76
2023/01/22 10:30:35;;;;;;;;;;;;;;;;;;4453690;32;20017;-77
2023/01/22 10:33:04;;;;;;;13.27;8.07;;;;;;;;;;4430329;32;20001;-78
2023/01/22 10:35:30;;;;;;;15.05;8.63;;;;;;;;;;4446457;32;20508;-77
2023/01/22 10:37:56;;;;;;;10.88;7.93;;;;;;;;;;4447783;32;20350;-77
2023/01/22 10:40:22;;;;;;;;;;;;;;;;;;4453759;32;20017;-75
2023/01/22 10:42:58;;;;;;;11.35;7.30;;;;;;;;;;4442705;32;19974;-77
2023/01/22 10:45:23;;;;;;;12.32;8.07;;;;;;;;;;4425629;32;20182;-76
2023/01/22 10:47:48;;;;;;;;;;;;;;;;;;4428227;32;20022;-76
2023/01/22 10:50:15;;;;;;;14.22;8.24;;;;;;;;;;4427485;32;19960;-77
2023/01/22 10:52:42;;;;;;;9.57;6.18;;;;;;;;;;4446901;32;20416;-77
2023/01/22 10:55:18;;;;;;;10.77;7.57;;;;;;;;;;4453669;32;20051;-77
2023/01/22 10:57:47;;;;;;;12.43;7.18;;;;;;;;;;4438298;32;20061;-76
2023/01/22 11:00:12;;;;;;;12.48;7.47;;;;;;;;;;4431153;32;20085;-76
2023/01/22 11:02:37;;;;;;;;;;;;;;;;;;4449002;32;20037;-76
2023/01/22 11:05:16;;;;;;;14.25;7.10;;;;;;;;;;4423853;32;19933;-77
2023/01/22 11:07:42;;;;;;;11.60;7.47;;;;;;;;;;4442026;32;20121;-78
2023/01/22 11:10:07;;;;;;;;;;;;;;;;;;4445876;32;20047;-77
2023/01/22 11:12:44;;;;;;;11.27;6.75;;;;;;;;;;4445672;32;19964;-77
2023/01/22 11:15:09;;;;;;;9.10;5.57;;;;;;;;;;4442399;32;20018;-76
2023/01/22 11:17:34;;;;;;;;;;;;;;;;;;4445398;32;20080;-77
2023/01/22 11:20:02;;;;;;;14.18;6.22;;;;;;;;;;4447135;32;20370;-77
2023/01/22 11:22:33;;;;;;;13.62;6.80;;;;;;;;;;4446164;32;20152;-76
2023/01/22 11:24:58;;;;;;;10.52;5.50;;;;;;;;;;4422186;32;20026;-76
2023/01/22 11:27:23;;;;;;;;;;;;;;;;;;4437083;32;20080;-77
2023/01/22 11:30:08;;;;;;;9.93;6.35;;;;;;;;;;4443045;32;19988;-76
2023/01/22 11:32:42;;;;;;;11.20;5.95;;;;;;;;;;4443533;32;20176;-77
2023/01/22 11:35:16;;;;;;;7.25;5.37;;;;;;;;;;4442954;32;20021;-77
2023/01/22 11:37:48;;;;;;;11.98;6.65;;;;;;;;;;4441084;32;20013;-77
2023/01/22 11:40:42;;;;;;;13.62;5.95;;;;;;;;;;4432506;32;20060;-77
2023/01/22 11:43:16;;;;;;;8.23;5.72;;;;;;;;;;4382727;32;20069;-75
2023/01/22 11:46:06;;;;;;;10.75;5.78;;;;;;;;;;4439145;32;20080;-76
2023/01/22 11:48:37;;;;;;;12.25;5.45;;;;;;;;;;4451671;32;20369;-77
2023/01/22 11:51:08;;;;;;;6.87;5.20;;;;;;;;;;4436786;32;20032;-75
2023/01/22 11:53:33;;;;;;;7.90;6.07;;;;;;;;;;4442887;32;20132;-76
2023/01/22 11:55:59;;;;;;;;;;;;;;;;;;4439611;32;20025;-75
2023/01/22 11:58:35;;;;;;;8.10;4.97;;;;;;;;;;4437296;32;19945;-74
2023/01/22 12:01:00;;;;;;;;;;;;;;;;;;4438046;32;20120;-75
2023/01/22 12:03:35;;;;;;;6.78;4.53;;;;;;;;;;4421609;32;20002;-78
2023/01/22 12:06:03;;;;;;;6.03;4.00;;;;;;;;;;4435920;32;20060;-76
2023/01/22 12:08:37;;;;;;;8.50;4.65;;;;;;;;;;4423622;32;20022;-76
2023/01/22 12:11:22;;;;;;;9.98;4.50;;;;;;;;;;4437559;32;20446;-76
2023/01/22 12:14:09;;;;;;;8.25;4.87;;;;;;;;;;4414036;32;20033;-76
2023/01/22 12:16:34;;;;;;;11.93;5.30;;;;;;;;;;4437831;32;20399;-76
2023/01/22 12:18:59;;;;;;;;;;;;;;;;;;4438690;32;20018;-76
2023/01/22 12:21:36;;;;;;;6.85;4.85;;;;;;;;;;4444389;32;19941;-76
2023/01/22 12:24:10;;;;;;;12.60;6.18;;;;;;;;;;4438893;32;20052;-76
2023/01/22 12:26:38;;;;;;;12.40;5.65;;;;;;;;;;4436754;32;20034;-76
2023/01/22 12:29:09;;;;;;;9.98;6.22;;;;;;;;;;4435864;32;20057;-76
2023/01/22 12:31:38;;;;;;;12.13;7.20;;;;;;;;;;4421852;32;20033;-76
2023/01/22 12:34:08;;;;;;;10.68;6.18;;;;;;;;;;4422354;32;20072;-77
2023/01/22 12:36:34;;;;;;;12.15;7.00;;;;;;;;;;4436518;32;20057;-77
2023/01/22 12:38:59;;;;;;;;;;;;;;;;;;4423910;32;20025;-75
2023/01/22 12:41:43;;;;;;;12.35;7.05;;;;;;;;;;4437351;32;19941;-76
2023/01/22 12:44:18;;;;;;;11.15;6.53;;;;;;;;;;4439908;32;20124;-76
2023/01/22 12:46:52;;;;;;;9.98;7.43;;;;;;;;;;4439315;32;20082;-77
2023/01/22 12:49:19;;;;;;;12.13;7.40;;;;;;;;;;4426805;32;20068;-77
2023/01/22 12:51:46;;;;;;;13.02;7.18;;;;;;;;;;4438509;32;20037;-76
2023/01/22 12:54:18;;;;;;;16.98;8.07;;;;;;;;;;4439312;32;20021;-76
2023/01/22 12:56:43;;;;;;;10.57;7.25;;;;;;;;;;4424459;32;20393;-77
2023/01/22 12:59:08;;;;;;;;;;;;;;;;;;4439209;32;20044;-75
2023/01/22 13:01:34;;;;;;;11.02;7.37;;;;;;;;;;4438770;32;19985;-76
2023/01/22 13:03:59;;;;;;;;;;;;;;;;;;4426383;32;20124;-76
2023/01/22 13:06:38;;;;;;;11.96;6.90;;;;;;;;;;4440645;32;19943;-77
2023/01/22 13:09:04;;;;;;;11.02;7.18;;;;;;;;;;4438811;32;20057;-76
2023/01/22 13:11:31;;;;;;;11.12;7.93;;;;;;;;;;4439491;32;20022;-75
2023/01/22 13:14:17;;;;;;;11.00;8.02;;;;;;;;;;4441217;32;20387;-77
2023/01/22 13:16:51;;;;;;;14.02;9.57;;;;;;;;;;4442103;32;20057;-77
2023/01/22 13:19:21;;;;;;;11.73;7.97;;;;;;;;;;4454221;32;20032;-76
2023/01/22 13:21:47;;;;;;;10.60;7.15;;;;;;;;;;4439791;32;20433;-77
2023/01/22 13:24:12;;;;;;;;;;;;;;;;;;4454697;32;20029;-77
2023/01/22 13:26:37;;;;;;;10.18;6.82;;;;;;;;;;4440155;32;20004;-77
2023/01/22 13:29:16;;;;;;;11.68;6.95;;;;;;;;;;4453696;32;20068;-76
2023/01/22 13:31:49;;;;;;;13.65;7.70;;;;;;;;;;4455243;32;20154;-78
2023/01/22 13:34:14;;;;;;;10.27;7.22;;;;;;;;;;4454104;32;20047;-76
2023/01/22 13:36:39;;;;;;;;;;;;;;;;;;4440066;32;20104;-75
2023/01/22 13:39:05;;;;;;;13.35;7.82;;;;;;;;;;4454602;32;19984;-75
2023/01/22 13:41:34;;;;;;;13.77;7.20;;;;;;;;;;4453872;32;20021;-76
2023/01/22 13:43:59;;;;;;;10.50;6.82;;;;;;;;;;4445033;32;20403;-75
2023/01/22 13:46:25;;;;;;;;;;;;;;;;;;4466767;32;20044;-75
2023/01/22 13:49:01;;;;;;;14.25;7.45;;;;;;;;;;4456131;32;19990;-75
2023/01/22 13:51:27;;;;;;;13.05;7.30;;;;;;;;;;4440158;32;20494;-75
2023/01/22 13:53:52;;;;;;;;;;;;;;;;;;4454507;32;20021;-76
2023/01/22 13:56:18;;;;;;;12.35;7.43;;;;;;;;;;4453757;32;19936;-75
2023/01/22 13:58:44;;;;;;;12.57;7.45;;;;;;;;;;4453962;32;20147;-76
2023/01/22 14:01:09;;;;;;;;;;;;;;;;;;4439448;32;20142;-77
2023/01/22 14:03:34;;;;;;;14.63;7.90;;;;;;;;;;4454803;32;19932;-76
2023/01/22 14:06:00;;;;;;;;;;;;;;;;;;4453728;32;20112;-77
2023/01/22 14:08:25;;;;;;;11.95;7.75;;;;;;;;;;4438944;32;19980;-74
2023/01/22 14:10:50;;;;;;;;;;;;;;;;;;4454701;32;20112;-75
2023/01/22 14:13:15;;;;;;;15.13;7.45;;;;;;;;;;4438374;32;19946;-75
2023/01/22 14:15:40;;;;;;;;;;;;;;;;;;4453034;32;20180;-75
2023/01/22 14:18:06;;;;;;;12.07;7.40;;;;;;;;;;4453749;32;19957;-76
2023/01/22 14:20:31;;;;;;;;;;;;;;;;;;4438829;32;20022;-76
2023/01/22 14:22:56;;;;;;;13.20;7.80;;;;;;;;;;4438373;32;19945;-76
2023/01/22 14:25:21;;;;;;;;;;;;;;;;;;4454422;32;20037;-76
2023/01/22 14:27:47;;;;;;;15.13;8.93;;;;;;;;;;4438569;32;19941;-76
2023/01/22 14:30:14;;;;;;;16.05;9.00;;;;;;;;;;4439047;32;20116;-76
2023/01/22 14:32:43;;;;;;;14.13;9.18;;;;;;;;;;4452970;32;20047;-76
2023/01/22 14:35:14;;;;;;;15.85;8.65;;;;;;;;;;4453180;32;20022;-76
2023/01/22 14:37:39;;;;;;;15.73;8.73;;;;;;;;;;4438789;32;20415;-77
2023/01/22 14:40:04;;;;;;;;;;;;;;;;;;4450043;32;20107;-76
2023/01/22 14:42:29;;;;;;;15.40;10.50;;;;;;;;;;4449203;32;20285;-76
2023/01/22 14:44:54;;;;;;;;;;;;;;;;;;4447172;32;20121;-76
2023/01/22 14:47:19;;;;;;;13.74;9.76;;;;;;;;;;4452542;32;19932;-76
2023/01/22 14:49:44;;;;;;;;;;;;;;;;;;4450189;32;20033;-76
2023/01/22 14:52:10;;;;;;;16.05;11.20;;;;;;;;;;4452177;32;19932;-76
2023/01/22 14:54:35;;;;;;;;;;;;;;;;;;4452695;32;20174;-77
2023/01/22 14:57:02;;;;;;;15.10;10.23;;;;;;;;;;4453251;32;19955;-77
2023/01/22 14:59:27;;;;;;;17.90;11.10;;;;;;;;;;4452113;32;20214;-77
2023/01/22 15:01:52;;;;;;;;;;;;;;;;;;4439987;32;20438;-76
2023/01/22 15:04:17;;;;;;;18.23;11.30;;;;;;;;;;4451824;32;19956;-76
2023/01/22 15:06:42;;;;;;;17.45;10.80;;;;;;;;;;4438323;32;20098;-76
2023/01/22 15:09:07;;;;;;;;;;;;;;;;;;4439219;32;20082;-76
2023/01/22 15:11:33;;;;;;;14.75;10.77;;;;;;;;;;4456341;32;20034;-76